Delong, Illinois
Current Conditions -  °F | °C
As of 10:55 AM on Friday 24 Oct 2014 (Local Time) from KGBG Reporting Station
Moderate Fog Moderate Fog  
Wind Chill: 53°   Ceiling: 300
Heat Index: 53°   Visibility: 0.25mi
Dew Point: 53°   Wind: 7mph
Humidity: 99%   Direction: 190°S
Pressure: 30.09"   Gusts: NA
Location:  40.8742°N, 90.157°W
Report Text: KGBG 241555Z AUTO 19006KT 1/4SM FG OVC003 12/12 A3009 RMK AO2 T01170116
Loading
Personal Weather Stations






























Interactive Weather Map
Tropical Storm Tracking
New forecast layout! Learn more

10-Day Weather Forecast

Advertisements
Track Severe Weather on mobile